• Join FlightAware (Why Join?)
  • Login
  • US Flag 
03:03AM EDT


 

Airport Tracker/Info


-or-


 

Live Flight TrackerFlight Track Log ✈ SWA1533 ✈ 11-Apr-2013 ✈ KMHT - KBWI

Flight Track Log - Related Links

Times and Time Zones

All times are in EDT time to prevent confusion due to time zone crossing. See the SWA1533 flight status page for this flight to view local times or setup timezone preferences in your user account.

Time Position Orientation Groundspeed Altitude Reporting Facility
EDT Latitude Longitude Course Direction KTS MPH feet Rate Location/Type
07:04PM 42.9500 -71.4333 350° North 153 176 1,200  Level KA90
07:05PM 43.0047 -71.4464 350° North 186 214 5,300 2,580 Climbing Boston Center
07:06PM 43.0247 -71.3581 73° East 161 185 7,300 2,340 Climbing Boston Center
07:07PM 43.0422 -71.2383 79° East 270 311 10,100 3,060 Climbing Boston Center
07:08PM 43.0636 -71.1017 78° East 345 397 13,500 3,240 Climbing Boston Center
07:09PM 43.0578 -70.9681 93° East 351 404 16,600 2,580 Climbing Boston Center
07:10PM 42.9839 -70.8989 146° Southeast 328 377 18,600 1,920 Climbing Boston Center
07:11PM 42.8842 -70.9269 192° South 314 361 20,500 2,160 Climbing Boston Center
07:12PM 42.7828 -70.9803 201° Southwest 347 399 23,000 2,460 Climbing Boston Center
07:13PM 42.6772 -71.0336 200° South 383 441 25,400 2,220 Climbing Boston Center
07:14PM 42.6056 -71.1397 227° Southwest 390 449 27,500 2,160 Climbing Boston Center
07:15PM 42.5422 -71.2594 234° Southwest 383 441 29,800 2,220 Climbing Boston Center
07:16PM 42.4831 -71.3789 236° Southwest 383 441 32,000 1,980 Climbing Boston Center
07:17PM 42.4214 -71.4922 234° Southwest 388 447 33,800 960 Climbing Boston Center
07:18PM 42.3558 -71.6114 233° Southwest 388 447 34,000 60 Climbing Boston Center
07:19PM 42.2939 -71.7272 234° Southwest 388 447 34,000  Level Boston Center
07:20PM 42.2239 -71.8514 233° Southwest 388 447 34,000  Level Boston Center
07:21PM 42.1639 -71.9667 235° Southwest 388 447 34,000  Level Boston Center
07:22PM 42.1019 -72.0875 235° Southwest 388 447 34,000  Level Boston Center
07:23PM 42.0397 -72.2025 234° Southwest 388 447 34,100  Climbing Boston Center
07:24PM 41.9772 -72.3144 233° Southwest 388 447 34,000 -60 Descending Boston Center
07:25PM 41.9147 -72.4317 234° Southwest 388 447 34,000  Level Boston Center
07:26PM 41.8522 -72.5461 234° Southwest 388 447 34,000  Level Boston Center
07:27PM 41.7917 -72.6600 235° Southwest 388 447 34,000  Level Boston Center
07:28PM 41.7267 -72.7739 233° Southwest 388 447 34,000  Level Boston Center
07:29PM 41.6639 -72.8903 234° Southwest 388 447 34,000  Level Boston Center
07:30PM 41.6008 -73.0064 234° Southwest 388 447 34,000  Level Boston Center
07:31PM 41.5375 -73.1250 235° Southwest 388 447 34,000  Level Boston Center
07:32PM 41.4786 -73.2325 234° Southwest 382 440 34,000 -420 Level Boston Center
07:34PM 41.3756 -73.4172 233° Southwest 383 441 32,900 -780 Descending New York Center
07:35PM 41.3106 -73.5333 233° Southwest 388 447 32,000 -480 Descending New York Center
07:36PM 41.2431 -73.6492 232° Southwest 398 458 32,000  Level New York Center
07:37PM 41.1758 -73.7647 232° Southwest 404 465 32,000  Level New York Center
07:38PM 41.1083 -73.8775 232° Southwest 404 465 32,000  Level New York Center
07:39PM 41.0386 -73.9897 231° Southwest 404 465 32,000  Level New York Center
07:40PM 40.9728 -74.1075 234° Southwest 404 465 32,000 -60 Level New York Center
07:41PM 40.8922 -74.2297 229° Southwest 404 465 31,900 -1,620 Descending New York Center
07:42PM 40.8242 -74.3469 233° Southwest 404 465 28,800 -1,980 Descending New York Center
07:43PM 40.7497 -74.4608 229° Southwest 409 471 28,000 -420 Descending New York Center
07:44PM 40.6756 -74.5717 229° Southwest 409 471 28,000  Level New York Center
07:45PM 40.6031 -74.6825 229° Southwest 409 471 28,000  Level New York Center
07:46PM 40.5286 -74.7903 228° Southwest 409 471 28,000  Level New York Center
07:47PM 40.4539 -74.9031 229° Southwest 409 471 28,000 -480 Level New York Center
07:48PM 40.3811 -75.0106 228° Southwest 409 471 27,100 -1,560 Descending New York Center
07:49PM 40.3128 -75.1153 229° Southwest 403 464 24,900 -2,280 Descending New York Center
07:50PM 40.2444 -75.2169 229° Southwest 392 451 22,600 -2,280 Descending New York Center
07:51PM 40.1783 -75.3133 228° Southwest 381 438 20,400 -1,800 Descending New York Center
07:52PM 40.1167 -75.3961 226° Southwest 364 419 19,000 -720 Descending New York Center
07:53PM 40.0461 -75.4917 226° Southwest 344 396 19,000 -480 Level New York Center
07:54PM 39.9908 -75.5719 228° Southwest 333 383 18,100 -1,020 Descending New York Center
07:55PM 39.9222 -75.6675 227° Southwest 333 383 17,100 -960 Descending New York Center
07:56PM 39.8769 -75.7536 236° Southwest 333 383 16,200 -1,080 Descending New York Center
07:58PM 39.7500 -76.0000 236° Southwest 310 357 13,500 -1,200 Descending Potomac TRACON
07:59PM 39.7000 -76.0833 232° Southwest 298 343 12,200 -840 Descending Potomac TRACON
08:00PM 39.6667 -76.1667 243° Southwest 274 315 12,000 -720 Descending Potomac TRACON
08:01PM 39.6167 -76.2500 232° Southwest 268 308 10,800 -1,200 Descending Potomac TRACON
08:02PM 39.5833 -76.3167 237° Southwest 270 311 9,600 -1,440 Descending Potomac TRACON
08:03PM 39.5500 -76.4000 243° Southwest 268 308 8,000 -1,560 Descending Potomac TRACON
08:04PM 39.5167 -76.4833 243° Southwest 267 307 6,500 -1,380 Descending Potomac TRACON
08:05PM 39.4833 -76.5833 247° West 262 302 5,300 -840 Descending Potomac TRACON
08:06PM 39.4667 -76.6667 256° West 259 298 5,000 -300 Descending Potomac TRACON
08:07PM 39.4333 -76.7500 243° Southwest 255 293 4,800 -540 Descending Potomac TRACON
08:08PM 39.4000 -76.8167 237° Southwest 231 266 4,000 -420 Descending Potomac TRACON
08:09PM 39.3500 -76.8833 226° Southwest 209 241 4,000  Level Potomac TRACON
08:10PM 39.3167 -76.9333 229° Southwest 209 241 4,000  Level Potomac TRACON
08:11PM 39.2833 -76.9833 229° Southwest 209 241 4,000  Level Potomac TRACON
08:12PM 39.2667 -77.0500 252° West 174 200 4,000 -420 Level Potomac TRACON
08:13PM 39.2167 -77.0667 194° South 164 189 3,200 -900 Descending Potomac TRACON
08:14PM 39.1833 -77.0500 159° South 170 196 2,300 -600 Descending Potomac TRACON
08:15PM 39.1833 -76.9833 90° East 154 177 2,000 -180 Descending Potomac TRACON
08:16PM 39.1833 -76.9333 90° East 152 175 2,000  Level Potomac TRACON
08:17PM 39.1833 -76.8833 90° East 151 174 2,000  Level Potomac TRACON
08:18PM 39.1833 -76.8333 90° East 152 175 2,000 -300 Level Potomac TRACON
08:19PM 39.1833 -76.7833 90° East 140 161 1,500 -600 Descending Potomac TRACON
08:20PM 39.1833 -76.7333 90° East 126 145 800 -660 Descending Potomac TRACON
08:22PM 39.1667 -76.6667 270° West  Level FlightAware Approximate
08:29PM 39.1754 -76.6683 270° West  Level Estimated